Time;durP1;ratioP1;P1;durP2;ratioP2;P2;SDS_P1;SDS_P2;PMS_P1;PMS_P2;Temp;Humidity;BMP_temperature;BMP_pressure;BME280_temperature;BME280_humidity;BME280_pressure;Samples;Min_cycle;Max_cycle;Signal;HPM_P1;HPM_P2
2021/04/10 00:00:58;;;;;;;14.73;10.33;;;7.20;99.90;;;;;;5093519;28;20564;-57
2021/04/10 00:03:25;;;;;;;15.43;10.37;;;7.10;99.90;;;;;;5092062;28;20248;-59
2021/04/10 00:05:53;;;;;;;15.40;11.20;;;7.10;99.90;;;;;;5092178;28;20708;-57
2021/04/10 00:08:20;;;;;;;13.87;10.90;;;7.10;99.90;;;;;;5092491;28;20295;-57
2021/04/10 00:10:47;;;;;;;14.47;11.07;;;7.00;99.90;;;;;;5093142;28;20216;-58
2021/04/10 00:13:13;;;;;;;14.23;10.37;;;7.00;99.90;;;;;;5092796;28;20226;-57
2021/04/10 00:15:40;;;;;;;13.53;10.13;;;7.00;99.90;;;;;;5096612;28;20200;-56
2021/04/10 00:18:07;;;;;;;14.40;10.30;;;7.00;99.90;;;;;;5095701;28;20291;-54
2021/04/10 00:20:34;;;;;;;14.43;10.53;;;7.00;99.90;;;;;;5095834;28;20290;-58
2021/04/10 00:23:02;;;;;;;15.20;10.40;;;7.00;99.90;;;;;;5093541;28;20224;-58
2021/04/10 00:25:28;;;;;;;13.50;10.80;;;7.10;99.90;;;;;;5092714;28;20283;-56
2021/04/10 00:27:55;;;;;;;13.93;10.87;;;7.10;99.90;;;;;;5092098;28;20227;-58
2021/04/10 00:30:23;;;;;;;16.30;11.23;;;7.10;99.90;;;;;;5092866;28;20758;-56
2021/04/10 00:32:50;;;;;;;17.60;11.40;;;7.20;99.90;;;;;;5092771;28;20195;-58
2021/04/10 00:35:17;;;;;;;12.33;10.17;;;7.20;99.90;;;;;;5093014;28;20288;-57
2021/04/10 00:37:44;;;;;;;16.97;11.37;;;7.20;99.90;;;;;;5093104;28;20231;-55
2021/04/10 00:40:13;;;;;;;15.40;11.13;;;7.30;99.90;;;;;;5093388;28;20203;-59
2021/04/10 00:42:40;;;;;;;15.60;10.90;;;7.20;99.90;;;;;;5092146;28;20223;-56
2021/04/10 00:45:08;;;;;;;13.97;11.17;;;7.20;99.90;;;;;;5090989;28;20940;-58
2021/04/10 00:47:35;;;;;;;14.73;10.90;;;7.20;99.90;;;;;;5092578;28;20239;-57
2021/04/10 00:50:05;;;;;;;14.07;11.17;;;7.20;99.90;;;;;;5080981;28;20247;-57
2021/04/10 00:52:32;;;;;;;14.27;10.97;;;7.20;99.90;;;;;;5086897;28;20279;-58
2021/04/10 00:55:02;;;;;;;13.87;10.70;;;7.20;99.90;;;;;;5092596;28;20296;-57
2021/04/10 00:57:31;;;;;;;15.10;10.50;;;7.10;99.90;;;;;;5090225;28;20185;-56
2021/04/10 00:59:58;;;;;;;14.43;11.00;;;7.10;99.90;;;;;;5092303;28;20200;-58
2021/04/10 01:02:27;;;;;;;15.43;10.90;;;7.10;99.90;;;;;;5081059;28;20543;-57
2021/04/10 01:04:54;;;;;;;13.07;10.47;;;7.10;99.90;;;;;;5092260;28;20203;-56
2021/04/10 01:07:21;;;;;;;13.30;10.73;;;7.20;99.90;;;;;;5086205;28;20193;-56
2021/04/10 01:09:53;;;;;;;12.93;10.20;;;7.20;99.90;;;;;;5092143;28;20227;-57
2021/04/10 01:12:30;;;;;;;11.40;10.10;;;7.40;99.90;;;;;;5091885;28;20226;-57
2021/04/10 01:15:09;;;;;;;11.80;10.17;;;7.50;99.90;;;;;;5089971;28;20814;-58
2021/04/10 01:17:44;;;;;;;11.40;9.90;;;7.60;99.90;;;;;;5090325;28;20208;-56
2021/04/10 01:20:28;;;;;;;12.53;9.70;;;7.60;99.90;;;;;;5091817;28;20180;-56
2021/04/10 01:23:25;;;;;;;10.57;8.87;;;7.60;99.90;;;;;;5089630;28;20184;-57
2021/04/10 01:26:06;;;;;;;10.77;9.10;;;7.60;99.90;;;;;;5091521;28;20271;-58
2021/04/10 01:28:50;;;;;;;11.33;9.43;;;7.60;99.90;;;;;;5081656;28;20237;-57
2021/04/10 01:31:19;;;;;;;11.63;9.70;;;7.90;99.90;;;;;;5090154;28;20666;-55
2021/04/10 01:33:49;;;;;;;10.67;8.77;;;8.10;99.90;;;;;;5091982;28;20188;-57
2021/04/10 01:36:21;;;;;;;11.87;9.43;;;7.90;99.90;;;;;;5092051;28;20184;-57
2021/04/10 01:38:51;;;;;;;13.70;9.47;;;7.90;99.90;;;;;;5095066;28;20188;-57
2021/04/10 01:41:19;;;;;;;11.93;8.87;;;7.90;99.90;;;;;;5095594;28;20262;-58
2021/04/10 01:43:49;;;;;;;12.60;9.27;;;7.80;99.90;;;;;;5095487;28;20196;-58
2021/04/10 01:46:18;;;;;;;11.60;9.73;;;7.90;99.90;;;;;;5095591;28;20291;-56
2021/04/10 01:48:47;;;;;;;12.00;9.43;;;7.90;99.90;;;;;;5095357;28;20739;-58
2021/04/10 01:51:16;;;;;;;10.53;9.13;;;7.80;99.90;;;;;;5085348;28;20643;-58
2021/04/10 01:53:43;;;;;;;11.73;9.23;;;7.80;99.90;;;;;;5094570;28;20224;-57
2021/04/10 01:56:12;;;;;;;11.03;9.53;;;7.70;99.90;;;;;;5092432;28;20619;-56
2021/04/10 01:58:43;;;;;;;11.27;9.13;;;7.70;99.90;;;;;;5095192;28;20226;-57
2021/04/10 02:01:13;;;;;;;11.97;9.00;;;7.90;99.90;;;;;;5092788;28;20234;-58
2021/04/10 02:03:43;;;;;;;11.47;9.23;;;8.10;99.90;;;;;;5095361;28;20216;-57
2021/04/10 02:06:11;;;;;;;13.63;9.27;;;8.20;99.90;;;;;;5092476;28;20192;-57
2021/04/10 02:08:40;;;;;;;11.60;9.13;;;8.20;99.90;;;;;;5095211;28;20254;-56
2021/04/10 02:11:08;;;;;;;12.00;10.07;;;8.10;99.90;;;;;;5094999;28;20212;-59
2021/04/10 02:13:36;;;;;;;13.03;10.50;;;7.90;99.90;;;;;;5092978;28;20719;-57
2021/04/10 02:16:03;;;;;;;11.90;10.60;;;7.90;99.90;;;;;;5095193;28;20258;-57
2021/04/10 02:18:31;;;;;;;11.63;10.30;;;7.70;99.90;;;;;;5091298;28;20272;-56
2021/04/10 02:21:00;;;;;;;12.73;10.43;;;7.70;99.90;;;;;;5094772;28;20535;-57
2021/04/10 02:23:27;;;;;;;11.27;10.00;;;7.70;99.90;;;;;;5093260;28;20290;-56
2021/04/10 02:25:54;;;;;;;14.20;10.40;;;7.80;99.90;;;;;;5093678;28;20196;-58
2021/04/10 02:28:21;;;;;;;14.00;10.57;;;7.90;99.90;;;;;;5084324;28;20271;-57
2021/04/10 02:30:47;;;;;;;13.73;11.10;;;7.80;99.90;;;;;;5090402;28;20227;-56
2021/04/10 02:33:20;;;;;;;12.37;10.00;;;7.70;99.90;;;;;;5092464;28;20283;-57
2021/04/10 02:35:51;;;;;;;12.93;10.40;;;7.80;99.90;;;;;;5092617;28;20189;-57
2021/04/10 02:38:20;;;;;;;15.90;13.10;;;7.70;99.90;;;;;;5094730;28;20180;-57
2021/04/10 02:40:53;;;;;;;17.13;14.73;;;7.60;99.90;;;;;;5093100;28;20198;-58
2021/04/10 02:43:25;;;;;;;19.13;16.80;;;7.50;99.90;;;;;;5084583;28;20292;-58
2021/04/10 02:45:53;;;;;;;16.93;15.13;;;7.60;99.90;;;;;;5090143;28;20189;-55
2021/04/10 02:48:23;;;;;;;15.93;13.93;;;7.60;99.90;;;;;;5094275;28;20219;-57
2021/04/10 02:50:54;;;;;;;12.17;10.57;;;7.60;99.90;;;;;;5093898;28;20208;-57
2021/04/10 02:53:22;;;;;;;19.67;17.17;;;7.50;99.90;;;;;;5091592;28;20267;-58
2021/04/10 02:55:54;;;;;;;21.50;18.83;;;7.40;99.90;;;;;;5093931;28;20197;-57
2021/04/10 02:58:22;;;;;;;20.23;16.63;;;7.30;99.90;;;;;;5093564;28;20667;-58
2021/04/10 03:00:52;;;;;;;14.27;12.07;;;7.30;99.90;;;;;;5094028;28;20216;-57
2021/04/10 03:03:20;;;;;;;13.10;11.23;;;7.20;99.90;;;;;;5083318;28;20544;-57
2021/04/10 03:05:47;;;;;;;12.27;10.43;;;7.20;99.90;;;;;;5091583;28;20287;-58
2021/04/10 03:08:18;;;;;;;12.47;9.90;;;7.20;99.90;;;;;;5094309;28;20290;-56
2021/04/10 03:10:47;;;;;;;12.63;10.00;;;7.20;99.90;;;;;;5094482;28;20330;-57
2021/04/10 03:13:16;;;;;;;12.07;9.93;;;7.30;99.90;;;;;;5094336;28;20219;-57
2021/04/10 03:15:43;;;;;;;14.13;10.27;;;7.20;99.90;;;;;;5094468;28;20248;-57
2021/04/10 03:18:12;;;;;;;14.40;10.80;;;7.20;99.90;;;;;;5094156;28;20297;-57
2021/04/10 03:20:39;;;;;;;12.10;10.30;;;7.20;99.90;;;;;;5094155;28;20197;-57
2021/04/10 03:23:06;;;;;;;15.73;11.83;;;7.10;99.90;;;;;;5094254;28;20206;-57
2021/04/10 03:25:34;;;;;;;13.10;11.33;;;7.00;99.90;;;;;;5094070;28;20207;-56
2021/04/10 03:28:02;;;;;;;15.07;11.27;;;7.00;99.90;;;;;;5093451;28;20388;-58
2021/04/10 03:30:30;;;;;;;16.33;11.63;;;6.90;99.90;;;;;;5093939;28;20270;-57
2021/04/10 03:32:57;;;;;;;15.63;12.03;;;6.70;99.90;;;;;;5093948;28;20518;-58
2021/04/10 03:35:27;;;;;;;16.83;12.50;;;6.70;99.90;;;;;;5093723;28;20299;-57
2021/04/10 03:37:55;;;;;;;18.23;12.23;;;6.60;99.90;;;;;;5094030;28;20225;-56
2021/04/10 03:40:22;;;;;;;14.17;11.37;;;6.50;99.90;;;;;;5093470;28;20747;-57
2021/04/10 03:42:50;;;;;;;16.10;11.70;;;6.60;99.90;;;;;;5093292;28;20204;-56
2021/04/10 03:45:19;;;;;;;16.30;11.90;;;6.60;99.90;;;;;;5093516;28;20287;-56
2021/04/10 03:47:53;;;;;;;18.03;12.37;;;6.50;99.90;;;;;;5093760;28;20180;-55
2021/04/10 03:50:22;;;;;;;18.00;13.33;;;6.40;99.90;;;;;;5093613;28;20254;-57
2021/04/10 03:52:49;;;;;;;16.07;12.40;;;6.20;99.90;;;;;;5093502;28;20204;-55
2021/04/10 03:55:17;;;;;;;17.23;13.70;;;6.10;99.90;;;;;;5093058;28;20208;-58
2021/04/10 03:57:43;;;;;;;16.63;13.20;;;6.00;99.90;;;;;;5093166;28;20291;-56
2021/04/10 04:00:12;;;;;;;18.40;13.87;;;5.90;99.90;;;;;;5093259;28;20230;-54
2021/04/10 04:02:39;;;;;;;19.23;14.23;;;5.90;99.90;;;;;;5093355;28;20207;-57
2021/04/10 04:05:07;;;;;;;17.90;14.67;;;5.90;99.90;;;;;;5093211;28;20296;-54
2021/04/10 04:07:34;;;;;;;21.70;16.60;;;5.90;99.90;;;;;;5093140;28;20253;-56
2021/04/10 04:10:01;;;;;;;21.10;15.50;;;5.90;99.90;;;;;;5092677;28;20669;-59
2021/04/10 04:12:28;;;;;;;18.27;14.40;;;5.90;99.90;;;;;;5092701;28;20211;-54
2021/04/10 04:14:55;;;;;;;21.33;14.67;;;6.00;99.90;;;;;;5093215;28;20557;-55
2021/04/10 04:17:23;;;;;;;19.30;15.40;;;6.00;99.90;;;;;;5093294;28;20236;-58
2021/04/10 04:19:50;;;;;;;21.73;14.40;;;6.00;99.90;;;;;;5092930;28;20692;-56
2021/04/10 04:22:16;;;;;;;21.20;16.03;;;5.90;99.90;;;;;;5093540;28;20605;-56
2021/04/10 04:24:43;;;;;;;23.70;16.73;;;5.80;99.90;;;;;;5095447;28;20285;-54
2021/04/10 04:27:10;;;;;;;19.53;15.47;;;5.90;99.90;;;;;;5095927;28;20302;-56
2021/04/10 04:29:39;;;;;;;20.57;16.57;;;5.90;99.90;;;;;;5094405;28;20318;-53
2021/04/10 04:32:07;;;;;;;21.83;16.67;;;5.80;99.90;;;;;;5093329;28;20260;-54
2021/04/10 04:34:36;;;;;;;25.40;17.17;;;5.80;99.90;;;;;;5092720;28;20596;-53
2021/04/10 04:37:04;;;;;;;21.97;16.63;;;5.80;99.90;;;;;;5093011;28;20198;-54
2021/04/10 04:39:30;;;;;;;23.83;17.17;;;5.80;99.90;;;;;;5093000;28;20202;-53
2021/04/10 04:41:59;;;;;;;20.60;16.53;;;5.90;99.90;;;;;;5092538;28;20293;-56
2021/04/10 04:44:26;;;;;;;23.23;16.40;;;5.90;99.90;;;;;;5092804;28;20257;-52
2021/04/10 04:46:53;;;;;;;24.27;16.93;;;6.00;99.90;;;;;;5092914;28;20205;-54
2021/04/10 04:49:21;;;;;;;23.63;18.00;;;6.00;99.90;;;;;;5092706;28;20286;-55
2021/04/10 04:51:48;;;;;;;22.57;17.73;;;5.90;99.90;;;;;;5092456;28;20245;-54
2021/04/10 04:54:15;;;;;;;23.33;17.13;;;6.00;99.90;;;;;;5092721;28;20206;-56
2021/04/10 04:56:42;;;;;;;22.10;15.93;;;6.00;99.90;;;;;;5092250;28;20272;-55
2021/04/10 04:59:09;;;;;;;22.73;16.90;;;6.10;99.90;;;;;;5092559;28;20378;-56
2021/04/10 05:01:36;;;;;;;21.30;16.03;;;6.00;99.90;;;;;;5092744;28;20288;-56
2021/04/10 05:04:03;;;;;;;20.97;15.70;;;6.00;99.90;;;;;;5092612;28;20234;-54
2021/04/10 05:06:30;;;;;;;23.77;16.63;;;6.00;99.90;;;;;;5092179;28;20238;-56
2021/04/10 05:08:58;;;;;;;22.47;16.87;;;6.00;99.90;;;;;;5092682;28;20206;-56
2021/04/10 05:11:25;;;;;;;22.73;16.93;;;6.00;99.90;;;;;;5092049;28;20265;-55
2021/04/10 05:13:52;;;;;;;22.53;17.07;;;5.90;99.90;;;;;;5095992;28;20206;-54
2021/04/10 05:16:19;;;;;;;25.30;17.40;;;6.00;99.90;;;;;;5096636;28;20334;-56
2021/04/10 05:18:45;;;;;;;25.37;17.40;;;5.90;99.90;;;;;;5096260;28;20766;-54
2021/04/10 05:21:12;;;;;;;23.17;17.27;;;5.90;99.90;;;;;;5096021;28;20824;-55
2021/04/10 05:23:39;;;;;;;22.93;16.80;;;6.00;99.90;;;;;;5096525;28;20204;-56
2021/04/10 05:26:07;;;;;;;24.67;17.50;;;6.10;99.90;;;;;;5095513;28;20232;-56
2021/04/10 05:28:34;;;;;;;25.20;17.50;;;6.20;99.90;;;;;;5096447;28;20252;-57
2021/04/10 05:31:01;;;;;;;21.43;16.83;;;6.20;99.90;;;;;;5096274;28;20266;-56
2021/04/10 05:33:29;;;;;;;24.83;17.10;;;6.10;99.90;;;;;;5096342;28;20214;-56
2021/04/10 05:35:56;;;;;;;23.93;17.67;;;6.10;99.90;;;;;;5095762;28;20199;-56
2021/04/10 05:38:24;;;;;;;24.07;17.90;;;6.00;99.90;;;;;;5096191;28;20234;-57
2021/04/10 05:40:51;;;;;;;23.30;17.13;;;6.00;99.90;;;;;;5095407;28;20227;-55
2021/04/10 05:43:19;;;;;;;24.37;17.03;;;6.00;99.90;;;;;;5096046;28;20302;-56
2021/04/10 05:45:46;;;;;;;23.87;17.57;;;6.00;99.90;;;;;;5096064;28;20281;-54
2021/04/10 05:48:13;;;;;;;22.90;16.90;;;6.00;99.90;;;;;;5096001;28;20226;-56
2021/04/10 05:50:40;;;;;;;25.43;18.67;;;6.10;99.90;;;;;;5095649;28;20222;-57
2021/04/10 05:53:07;;;;;;;21.93;17.37;;;6.20;99.90;;;;;;5095461;28;20586;-54
2021/04/10 05:55:34;;;;;;;24.53;17.27;;;6.20;99.90;;;;;;5095382;28;20233;-56
2021/04/10 05:58:01;;;;;;;19.93;16.27;;;6.30;99.90;;;;;;5095492;28;20207;-53
2021/04/10 06:00:28;;;;;;;22.77;16.27;;;6.30;99.90;;;;;;5095619;28;20303;-54
2021/04/10 06:02:56;;;;;;;23.23;16.93;;;6.30;99.90;;;;;;5095330;28;20299;-56
2021/04/10 06:05:24;;;;;;;20.60;16.23;;;6.40;99.90;;;;;;5095338;28;20209;-58
2021/04/10 06:07:51;;;;;;;19.73;15.53;;;6.40;99.90;;;;;;5095125;28;20245;-57
2021/04/10 06:10:19;;;;;;;21.60;15.90;;;6.40;99.90;;;;;;5095061;28;20323;-55
2021/04/10 06:12:47;;;;;;;19.83;15.73;;;6.40;99.90;;;;;;5095581;28;20203;-57
2021/04/10 06:15:16;;;;;;;21.70;15.80;;;6.50;99.90;;;;;;5095065;28;20231;-55
2021/04/10 06:17:44;;;;;;;22.47;16.47;;;6.50;99.90;;;;;;5095454;28;20295;-56
2021/04/10 06:20:13;;;;;;;19.60;16.03;;;6.50;99.90;;;;;;5095463;28;20279;-56
2021/04/10 06:22:40;;;;;;;21.53;16.23;;;6.50;99.90;;;;;;5095186;28;20214;-57
2021/04/10 06:25:08;;;;;;;21.83;16.97;;;6.50;99.90;;;;;;5093801;28;20271;-55
2021/04/10 06:27:36;;;;;;;23.63;17.13;;;6.50;99.90;;;;;;5094862;28;20691;-58
2021/04/10 06:30:06;;;;;;;21.27;16.20;;;6.60;99.90;;;;;;5095138;28;20670;-55
2021/04/10 06:32:32;;;;;;;21.90;16.00;;;6.70;99.90;;;;;;5094275;28;20282;-55
2021/04/10 06:35:00;;;;;;;22.63;17.07;;;6.80;99.90;;;;;;5093849;28;20299;-55
2021/04/10 06:37:27;;;;;;;20.17;15.77;;;7.00;99.90;;;;;;5094824;28;20239;-57
2021/04/10 06:39:54;;;;;;;18.73;15.07;;;7.00;99.90;;;;;;5094514;28;20234;-55
2021/04/10 06:42:21;;;;;;;19.23;15.37;;;7.10;99.90;;;;;;5094781;28;20238;-55
2021/04/10 06:44:48;;;;;;;17.17;15.00;;;7.10;99.90;;;;;;5094839;28;20231;-56
2021/04/10 06:47:20;;;;;;;18.90;15.03;;;7.20;99.90;;;;;;5094769;28;20203;-58
2021/04/10 06:49:49;;;;;;;18.50;15.30;;;7.20;99.90;;;;;;5094635;28;20222;-54
2021/04/10 06:52:18;;;;;;;19.83;15.73;;;7.20;99.90;;;;;;5093922;28;20311;-55
2021/04/10 06:54:48;;;;;;;20.33;16.00;;;7.20;99.90;;;;;;5093681;28;20823;-51
2021/04/10 06:57:19;;;;;;;19.63;15.60;;;7.20;99.90;;;;;;5094450;28;20278;-56
2021/04/10 06:59:52;;;;;;;18.67;15.37;;;7.20;99.90;;;;;;5094060;28;20187;-54
2021/04/10 07:02:19;;;;;;;20.37;15.80;;;7.20;99.90;;;;;;5094607;28;20279;-55
2021/04/10 07:04:46;;;;;;;21.87;16.13;;;7.20;99.90;;;;;;5094458;28;20199;-55
2021/04/10 07:07:13;;;;;;;17.63;15.17;;;7.20;99.90;;;;;;5094298;28;20203;-63
2021/04/10 07:09:41;;;;;;;19.20;15.50;;;7.20;99.90;;;;;;5093589;28;20206;-62
2021/04/10 07:12:09;;;;;;;21.07;16.03;;;7.20;99.90;;;;;;5094151;28;20307;-63
2021/04/10 07:14:36;;;;;;;21.53;16.93;;;7.10;99.90;;;;;;5094158;28;20293;-63
2021/04/10 07:17:04;;;;;;;20.60;15.40;;;7.10;99.90;;;;;;5093850;28;20203;-63
2021/04/10 07:19:31;;;;;;;22.73;17.17;;;7.00;99.90;;;;;;5094193;28;20204;-62
2021/04/10 07:22:05;;;;;;;21.40;16.57;;;6.90;99.90;;;;;;5094117;28;20218;-63
2021/04/10 07:24:41;;;;;;;20.57;16.33;;;7.00;99.90;;;;;;5093820;28;20184;-62
2021/04/10 07:27:13;;;;;;;23.83;17.97;;;7.10;99.90;;;;;;5093877;28;20234;-62
2021/04/10 07:29:41;;;;;;;20.67;16.60;;;7.10;99.90;;;;;;5093776;28;20619;-63
2021/04/10 07:32:34;;;;;;;18.33;15.37;;;7.20;99.90;;;;;;5093693;28;20691;-63
2021/04/10 07:35:03;;;;;;;17.03;15.03;;;7.20;99.90;;;;;;5083844;28;20286;-62
2021/04/10 07:37:35;;;;;;;17.07;14.73;;;7.20;99.90;;;;;;5093849;28;20298;-62
2021/04/10 07:40:06;;;;;;;18.37;14.83;;;7.40;99.90;;;;;;5093391;28;20245;-62
2021/04/10 07:42:37;;;;;;;17.73;15.50;;;7.50;99.90;;;;;;5093474;28;20628;-63
2021/04/10 07:45:05;;;;;;;16.27;14.47;;;7.60;99.90;;;;;;5093488;28;20702;-62
2021/04/10 07:47:35;;;;;;;16.83;14.83;;;7.60;99.90;;;;;;5093744;28;20282;-63
2021/04/10 07:50:16;;;;;;;18.17;15.53;;;7.60;99.90;;;;;;5093258;28;20231;-63
2021/04/10 07:52:43;;;;;;;18.70;15.83;;;7.70;99.90;;;;;;5093449;28;20215;-63
2021/04/10 07:55:38;;;;;;;19.10;15.93;;;7.70;99.90;;;;;;5093059;28;20210;-62
2021/04/10 07:58:26;;;;;;;17.20;14.87;;;7.70;99.90;;;;;;5088448;28;20201;-62
2021/04/10 08:00:57;;;;;;;18.93;15.43;;;7.70;99.90;;;;;;5082069;28;20257;-62
2021/04/10 08:03:32;;;;;;;18.50;15.43;;;7.60;99.90;;;;;;5073036;28;20192;-63
2021/04/10 08:06:14;;;;;;;18.93;15.47;;;7.60;99.90;;;;;;5072680;28;20249;-63
2021/04/10 08:08:55;;;;;;;20.70;17.03;;;7.60;99.90;;;;;;5071775;28;20232;-62
2021/04/10 08:11:35;;;;;;;20.77;16.53;;;7.70;99.90;;;;;;5072533;28;20715;-63
2021/04/10 08:14:06;;;;;;;20.37;16.03;;;7.70;99.90;;;;;;5084433;28;20245;-62
2021/04/10 08:16:38;;;;;;;20.27;15.33;;;7.80;99.90;;;;;;5085849;28;20278;-62
2021/04/10 08:19:05;;;;;;;20.70;16.23;;;7.80;99.90;;;;;;5082991;28;20295;-63
2021/04/10 08:21:45;;;;;;;20.17;16.77;;;7.80;99.90;;;;;;5076767;28;20198;-62
2021/04/10 08:24:26;;;;;;;18.77;15.67;;;7.70;99.90;;;;;;5077959;28;20208;-62
2021/04/10 08:26:55;;;;;;;20.73;15.93;;;7.80;99.90;;;;;;5075812;28;20754;-62
2021/04/10 08:29:23;;;;;;;19.63;15.57;;;7.90;99.90;;;;;;5076829;28;20236;-62
2021/04/10 08:31:51;;;;;;;17.17;14.87;;;8.00;99.90;;;;;;5073575;28;20220;-62
2021/04/10 08:34:19;;;;;;;15.97;14.23;;;8.30;99.90;;;;;;5072393;28;20209;-62
2021/04/10 08:36:51;;;;;;;19.57;16.27;;;8.60;99.90;;;;;;5080245;28;20196;-63
2021/04/10 08:39:20;;;;;;;17.33;14.33;;;8.80;99.90;;;;;;5085202;28;20283;-65
2021/04/10 08:41:52;;;;;;;15.03;13.43;;;9.00;99.90;;;;;;5072340;28;20204;-62
2021/04/10 08:44:23;;;;;;;14.93;13.17;;;9.00;99.90;;;;;;5072263;28;20651;-61
2021/04/10 08:46:51;;;;;;;16.67;14.27;;;9.00;99.90;;;;;;5071080;28;20276;-62
2021/04/10 08:49:19;;;;;;;15.03;12.27;;;8.80;99.90;;;;;;5071840;28;20208;-61
2021/04/10 08:51:51;;;;;;;15.23;13.63;;;8.70;99.90;;;;;;5074461;28;20281;-62
2021/04/10 08:54:19;;;;;;;16.80;14.37;;;8.80;99.90;;;;;;5092083;28;20715;-63
2021/04/10 08:56:49;;;;;;;16.33;14.30;;;8.80;99.90;;;;;;5092110;28;20224;-63
2021/04/10 08:59:18;;;;;;;17.23;14.10;;;8.70;99.90;;;;;;5092380;28;20275;-63
2021/04/10 09:02:07;;;;;;;19.37;14.47;;;8.50;99.90;;;;;;5091737;28;20648;-62
2021/04/10 09:04:54;;;;;;;16.70;14.43;;;8.50;99.90;;;;;;5091863;28;20184;-62
2021/04/10 09:08:05;;;;;;;17.03;15.23;;;8.60;99.90;;;;;;5091809;28;20264;-61
2021/04/10 09:10:46;;;;;;;17.57;14.50;;;8.80;99.90;;;;;;5092522;28;20185;-62
2021/04/10 09:13:46;;;;;;;16.40;14.53;;;8.90;99.90;;;;;;5092554;28;20275;-62
2021/04/10 09:16:37;;;;;;;16.30;14.27;;;9.10;99.90;;;;;;5092602;28;20220;-62
2021/04/10 09:19:13;;;;;;;18.10;14.07;;;9.20;99.90;;;;;;5092468;28;20203;-63
2021/04/10 09:21:42;;;;;;;16.37;14.33;;;9.20;99.90;;;;;;5092451;28;20203;-63
2021/04/10 09:24:23;;;;;;;16.23;14.27;;;9.10;99.90;;;;;;5092112;28;20246;-62
2021/04/10 09:26:59;;;;;;;17.00;15.20;;;9.00;99.90;;;;;;5091928;28;20240;-62
2021/04/10 09:29:27;;;;;;;19.70;14.83;;;9.10;99.90;;;;;;5092341;28;20220;-63
2021/04/10 09:31:57;;;;;;;16.43;14.83;;;9.10;99.90;;;;;;5092192;28;20227;-62
2021/04/10 09:34:54;;;;;;;17.13;14.97;;;9.10;99.90;;;;;;5092315;28;20200;-62
2021/04/10 09:38:01;;;;;;;18.53;15.00;;;9.20;99.90;;;;;;5091606;28;20238;-61
2021/04/10 09:40:50;;;;;;;16.87;14.70;;;9.10;99.90;;;;;;5092085;28;20199;-62
2021/04/10 09:43:19;;;;;;;22.53;15.37;;;9.20;99.90;;;;;;5092302;28;20222;-62
2021/04/10 09:45:47;;;;;;;16.97;15.17;;;9.20;99.90;;;;;;5091890;28;20725;-62
2021/04/10 09:48:25;;;;;;;19.90;16.93;;;9.10;99.90;;;;;;5092073;28;20203;-63
2021/04/10 09:51:05;;;;;;;20.57;15.87;;;9.10;99.90;;;;;;5092181;28;20291;-63
2021/04/10 09:53:35;;;;;;;20.93;17.03;;;9.10;99.90;;;;;;5091569;28;20195;-63
2021/04/10 09:56:08;;;;;;;20.87;17.23;;;9.10;99.90;;;;;;5091679;28;20301;-63
2021/04/10 09:58:44;;;;;;;26.10;18.67;;;9.30;99.90;;;;;;5088936;28;20747;-63
2021/04/10 10:01:14;;;;;;;19.67;17.47;;;9.40;99.90;;;;;;5083698;28;20286;-62
2021/04/10 10:03:41;;;;;;;21.00;17.97;;;9.50;99.90;;;;;;5094728;28;20192;-61
2021/04/10 10:06:28;;;;;;;22.37;18.37;;;9.60;99.90;;;;;;5091536;28;20211;-63
2021/04/10 10:08:55;;;;;;;20.47;16.87;;;9.80;99.90;;;;;;5086934;28;20202;-67
2021/04/10 10:11:22;;;;;;;19.20;16.30;;;9.80;99.90;;;;;;5094929;28;20308;-67
2021/04/10 10:13:50;;;;;;;21.37;18.33;;;9.90;99.90;;;;;;5095245;28;20203;-62
2021/04/10 10:16:28;;;;;;;24.73;19.67;;;9.80;99.90;;;;;;5094740;28;20249;-62
2021/04/10 10:18:55;;;;;;;21.70;18.57;;;9.80;99.90;;;;;;5094288;28;20233;-62
2021/04/10 10:21:24;;;;;;;20.37;17.00;;;9.70;99.90;;;;;;5084823;28;20192;-62
2021/04/10 10:23:52;;;;;;;19.33;16.43;;;9.60;99.90;;;;;;5085080;28;20231;-63
2021/04/10 10:26:21;;;;;;;19.80;17.23;;;9.60;99.90;;;;;;5091238;28;20754;-63
2021/04/10 10:28:50;;;;;;;22.43;17.17;;;9.70;99.90;;;;;;5093365;28;20200;-66
2021/04/10 10:31:20;;;;;;;20.23;17.00;;;9.80;99.90;;;;;;5094095;28;20299;-65
2021/04/10 10:33:48;;;;;;;25.37;19.17;;;9.80;99.90;;;;;;5094155;28;20227;-66
2021/04/10 10:36:16;;;;;;;24.07;21.10;;;9.90;99.90;;;;;;5094129;28;20278;-61
2021/04/10 10:38:46;;;;;;;22.77;19.13;;;10.00;99.90;;;;;;5094269;28;20206;-60
2021/04/10 10:41:15;;;;;;;21.33;17.30;;;10.00;99.90;;;;;;5091856;28;20276;-62
2021/04/10 10:43:43;;;;;;;19.93;17.83;;;9.90;99.90;;;;;;5094849;28;20200;-60
2021/04/10 10:46:11;;;;;;;23.83;18.43;;;9.90;99.90;;;;;;5094431;28;20242;-62
2021/04/10 10:48:40;;;;;;;21.27;17.93;;;9.80;99.90;;;;;;5093972;28;20222;-60
2021/04/10 10:51:10;;;;;;;21.23;18.43;;;9.70;99.90;;;;;;5094135;28;20265;-62
2021/04/10 10:53:39;;;;;;;23.13;19.27;;;9.40;99.90;;;;;;5093722;28;20200;-65
2021/04/10 10:56:12;;;;;;;24.63;20.70;;;9.30;99.90;;;;;;5082995;28;20220;-65
2021/04/10 10:58:45;;;;;;;22.10;19.07;;;9.20;99.90;;;;;;5093763;28;20223;-65
2021/04/10 11:01:21;;;;;;;21.47;19.17;;;9.20;99.90;;;;;;5093917;28;20818;-65
2021/04/10 11:03:54;;;;;;;24.03;20.37;;;9.20;99.90;;;;;;5092517;28;20290;-66
2021/04/10 11:06:24;;;;;;;23.73;20.17;;;9.20;99.90;;;;;;5082740;28;20204;-66
2021/04/10 11:08:59;;;;;;;21.60;18.60;;;9.20;99.90;;;;;;5085767;28;20204;-66
2021/04/10 11:11:31;;;;;;;22.00;18.43;;;9.30;99.90;;;;;;5072898;28;20695;-66
2021/04/10 11:13:58;;;;;;;20.57;18.27;;;9.50;99.90;;;;;;5073815;28;20220;-66
2021/04/10 11:16:26;;;;;;;24.07;19.47;;;9.60;99.90;;;;;;5082833;28;20188;-67
2021/04/10 11:18:57;;;;;;;23.00;18.60;;;9.60;99.90;;;;;;5092878;28;20200;-66
2021/04/10 11:21:27;;;;;;;20.27;17.43;;;9.60;99.90;;;;;;5092815;28;20216;-66
2021/04/10 11:24:07;;;;;;;21.50;18.67;;;9.60;99.90;;;;;;5084630;28;20280;-67
2021/04/10 11:26:37;;;;;;;21.27;19.07;;;9.70;99.90;;;;;;5090051;28;20277;-67
2021/04/10 11:29:22;;;;;;;21.20;18.17;;;9.70;99.90;;;;;;5092084;28;20234;-66
2021/04/10 11:32:09;;;;;;;20.83;18.63;;;9.80;99.90;;;;;;5091659;28;20243;-63
2021/04/10 11:34:37;;;;;;;20.87;17.63;;;10.10;99.90;;;;;;5092470;28;20257;-68
2021/04/10 11:37:06;;;;;;;20.10;16.97;;;10.30;99.90;;;;;;5090357;28;20196;-68
2021/04/10 11:39:52;;;;;;;18.13;15.47;;;10.40;99.90;;;;;;5091514;28;20364;-70
2021/04/10 11:42:24;;;;;;;19.90;17.30;;;10.50;99.90;;;;;;5092938;28;20176;-68
2021/04/10 11:44:51;;;;;;;18.83;16.63;;;10.40;99.90;;;;;;5093647;28;20200;-67
2021/04/10 11:47:21;;;;;;;19.23;16.63;;;10.40;99.90;;;;;;5092515;28;20265;-69
2021/04/10 11:49:49;;;;;;;18.43;16.00;;;10.50;99.90;;;;;;5092479;28;20208;-67
2021/04/10 11:52:18;;;;;;;19.57;17.50;;;10.50;99.90;;;;;;5092085;28;20255;-67
2021/04/10 11:54:45;;;;;;;18.40;16.53;;;10.50;99.90;;;;;;5093149;28;20200;-65
2021/04/10 11:57:35;;;;;;;18.43;16.50;;;10.50;99.90;;;;;;5092648;28;20200;-67
2021/04/10 12:00:16;;;;;;;19.50;17.30;;;10.40;99.90;;;;;;5088994;28;20203;-66
2021/04/10 12:02:45;;;;;;;20.17;16.07;;;10.20;99.90;;;;;;5092996;28;20221;-66
2021/04/10 12:05:37;;;;;;;19.03;16.70;;;10.00;99.90;;;;;;5084487;28;20671;-66
2021/04/10 12:08:27;;;;;;;21.37;16.23;;;10.10;99.90;;;;;;5081743;28;20208;-67
2021/04/10 12:10:56;;;;;;;17.87;15.80;;;10.20;99.90;;;;;;5082696;28;20285;-66
2021/04/10 12:13:25;;;;;;;18.27;15.73;;;10.30;99.90;;;;;;5080211;28;20664;-65
2021/04/10 12:15:54;;;;;;;17.53;15.30;;;10.30;99.90;;;;;;5077189;28;20236;-68
2021/04/10 12:18:23;;;;;;;15.30;13.80;;;10.40;99.90;;;;;;5082126;28;20287;-66
2021/04/10 12:20:51;;;;;;;16.03;14.10;;;10.50;99.90;;;;;;5093475;28;20235;-66
2021/04/10 12:23:18;;;;;;;15.03;13.53;;;10.40;99.90;;;;;;5091402;28;20202;-67
2021/04/10 12:25:46;;;;;;;14.90;13.30;;;10.60;99.90;;;;;;5091867;28;20281;-66
2021/04/10 12:28:13;;;;;;;15.00;13.40;;;10.50;99.90;;;;;;5089332;28;20234;-65
2021/04/10 12:30:42;;;;;;;14.67;13.23;;;10.60;99.90;;;;;;5092412;28;20377;-66
2021/04/10 12:33:09;;;;;;;14.03;12.53;;;10.50;99.90;;;;;;5092362;28;20303;-66
2021/04/10 12:35:36;;;;;;;13.20;11.87;;;10.50;99.90;;;;;;5091719;28;20711;-66
2021/04/10 12:38:03;;;;;;;14.87;13.27;;;10.60;99.90;;;;;;5091840;28;20291;-66
2021/04/10 12:40:30;;;;;;;14.17;12.63;;;10.80;99.90;;;;;;5091526;28;20227;-66
2021/04/10 12:42:57;;;;;;;14.27;12.87;;;11.20;99.90;;;;;;5079766;28;20276;-65
2021/04/10 12:45:24;;;;;;;14.80;13.23;;;11.40;99.90;;;;;;5083118;28;20567;-65
2021/04/10 12:51:39;;;;;;;13.57;12.17;;;11.30;99.90;;;;;;5079029;28;20622;-66
2021/04/10 12:54:06;;;;;;;13.57;12.23;;;11.40;99.90;;;;;;5087728;28;20202;-67
2021/04/10 12:56:33;;;;;;;14.47;12.97;;;11.40;99.90;;;;;;5091911;28;20195;-65